CheckWX is a tool to help pilots better visualize weather data.  It is not intended as a substitute for an official pre-flight weather briefing.

17:57:44 UTC

KSRC METAR
Searcy Municipal Airport
Searcy, Arkansas, USA
Current

1 hour ago

KSRC 171656Z AUTO 13007KT 10SM CLR 16/07 A3013 RMK AO2 SLP205 T01560067
Observed
Oct-17 @ 16:56 UTC
Wind
  • 130° at 7 KTS
Visibility
10 SM
Flight Rules
VFR
Cloud Levels
  • Clear skies
Temperature
16°C / 61°F
Dewpoint
C / 45°F
Humidity
55%
Altimeter
30.13" Hg
Pressure
1020.32 hPa
Previous

2 hours ago

KSRC 171556Z AUTO 16007KT 10SM CLR 14/07 A3015 RMK AO2 SLP211 T01440067
Observed
Oct-17 @ 15:56 UTC
Wind
  • 160° at 7 KTS
Visibility
10 SM
Flight Rules
VFR
Cloud Levels
  • Clear skies
Temperature
14°C / 57°F
Dewpoint
C / 45°F
Humidity
63%
Altimeter
30.15" Hg
Pressure
1021.02 hPa
Previous

3 hours ago

KSRC 171456Z AUTO 12005KT 10SM CLR 12/06 A3015 RMK AO2 SLP211 T01220061 53007
Observed
Oct-17 @ 14:56 UTC
Wind
  • 120° at 5 KTS
Visibility
10 SM
Flight Rules
VFR
Cloud Levels
  • Clear skies
Temperature
12°C / 54°F
Dewpoint
C / 43°F
Humidity
67%
Altimeter
30.15" Hg
Pressure
1021.02 hPa